createdAt,value
2022-12-18T00:00:25.837Z,69.94
2022-12-18T00:01:25.899Z,69.59
2022-12-18T00:02:25.798Z,69.07
2022-12-18T00:03:25.993Z,68.65
2022-12-18T00:04:25.802Z,69.27
2022-12-18T00:05:25.855Z,68.12
2022-12-18T00:06:25.759Z,67.59
2022-12-18T00:07:25.743Z,68.33
2022-12-18T00:08:25.763Z,68.33
2022-12-18T00:09:25.723Z,68.33
2022-12-18T00:10:26.724Z,68.04
2022-12-18T00:11:25.760Z,68.36
2022-12-18T00:12:25.690Z,67.72
2022-12-18T00:13:25.718Z,68.15
2022-12-18T00:14:25.680Z,67.65
2022-12-18T00:15:25.658Z,68.57
2022-12-18T00:16:25.710Z,68.26
2022-12-18T00:17:25.656Z,67.94
2022-12-18T00:18:25.669Z,68.57
2022-12-18T00:19:25.639Z,68.04
2022-12-18T00:20:25.605Z,68.88
2022-12-18T00:21:25.626Z,68.88
2022-12-18T00:22:25.585Z,68.57
2022-12-18T00:23:25.593Z,68.39
2022-12-18T00:24:25.644Z,68.39
2022-12-18T00:25:25.557Z,68.63
2022-12-18T00:26:25.549Z,68.84
2022-12-18T00:27:25.561Z,69.16
2022-12-18T00:28:25.523Z,69.16
2022-12-18T00:29:25.545Z,69.16
2022-12-18T00:30:25.574Z,69.37
2022-12-18T00:31:25.584Z,69.13
2022-12-18T00:32:25.495Z,68.91
2022-12-18T00:33:25.497Z,68.99
2022-12-18T00:34:25.460Z,69.02
2022-12-18T00:35:25.454Z,68.99
2022-12-18T00:36:25.435Z,68.88
2022-12-18T00:37:25.527Z,68.85
2022-12-18T00:38:25.416Z,68.01
2022-12-18T00:39:25.411Z,68.23
2022-12-18T00:40:25.430Z,68.33
2022-12-18T00:41:25.398Z,68.43
2022-12-18T00:42:25.378Z,67.91
2022-12-18T00:43:25.429Z,67.88
2022-12-18T00:44:25.356Z,68.43
2022-12-18T00:45:25.422Z,68.93
2022-12-18T00:46:25.348Z,68.30
2022-12-18T00:47:25.349Z,68.30
2022-12-18T00:48:25.325Z,68.40
2022-12-18T00:49:25.395Z,68.27
2022-12-18T00:50:25.292Z,67.85
2022-12-18T00:51:25.282Z,67.53
2022-12-18T00:52:25.304Z,67.53
2022-12-18T00:53:25.264Z,68.27
2022-12-18T00:54:25.277Z,67.95
2022-12-18T00:55:25.311Z,67.32
2022-12-18T00:56:25.228Z,66.69
2022-12-18T00:57:25.217Z,67.46
2022-12-18T00:58:25.244Z,67.24
2022-12-18T00:59:25.200Z,67.03
2022-12-18T01:00:25.216Z,67.03
2022-12-18T01:01:25.348Z,67.35
2022-12-18T01:02:25.315Z,67.88
2022-12-18T01:03:25.151Z,67.77
2022-12-18T01:04:25.181Z,67.88
2022-12-18T01:05:25.138Z,67.77
2022-12-18T01:06:25.118Z,67.53
2022-12-18T01:07:25.178Z,67.56
2022-12-18T01:08:25.102Z,67.88
2022-12-18T01:09:25.118Z,68.40
2022-12-18T01:10:25.086Z,68.40
2022-12-18T01:11:25.076Z,67.88
2022-12-18T01:12:25.058Z,68.19
2022-12-18T01:13:25.114Z,67.66
2022-12-18T01:14:25.051Z,67.88
2022-12-18T01:15:25.046Z,68.58
2022-12-18T01:16:25.119Z,68.05
2022-12-18T01:17:25.020Z,68.08
2022-12-18T01:18:24.992Z,67.56
2022-12-18T01:19:25.005Z,68.30
2022-12-18T01:20:24.993Z,67.56
2022-12-18T01:21:24.983Z,67.35
2022-12-18T01:22:24.990Z,66.93
2022-12-18T01:23:24.949Z,66.93
2022-12-18T01:24:24.937Z,67.56
2022-12-18T01:25:24.917Z,67.07
2022-12-18T01:26:24.914Z,67.27
2022-12-18T01:27:24.895Z,67.35
2022-12-18T01:28:24.904Z,67.56
2022-12-18T01:29:24.887Z,67.69
2022-12-18T01:30:24.875Z,67.49
2022-12-18T01:31:24.954Z,67.59
2022-12-18T01:32:24.890Z,67.38
2022-12-18T01:33:24.867Z,67.35
2022-12-18T01:34:24.829Z,67.07
2022-12-18T01:35:24.849Z,66.88
2022-12-18T01:36:24.830Z,66.99
2022-12-18T01:37:24.790Z,67.30
2022-12-18T01:38:24.787Z,66.36
2022-12-18T01:39:24.768Z,67.23
2022-12-18T01:40:24.806Z,67.13
2022-12-18T01:41:24.747Z,67.13
2022-12-18T01:42:24.749Z,67.79
2022-12-18T01:43:24.728Z,66.94
2022-12-18T01:44:24.713Z,67.68
2022-12-18T01:45:24.706Z,67.68
2022-12-18T01:46:24.712Z,67.79
2022-12-18T01:47:24.684Z,67.90
2022-12-18T01:48:24.682Z,68.21
2022-12-18T01:49:24.664Z,67.90
2022-12-18T01:50:24.680Z,68.29
2022-12-18T01:51:24.670Z,68.63
2022-12-18T01:52:24.656Z,67.68
2022-12-18T01:53:24.618Z,67.23
2022-12-18T01:54:24.620Z,67.58
2022-12-18T01:55:24.645Z,67.86
2022-12-18T01:56:24.587Z,67.86
2022-12-18T01:57:24.577Z,68.07
2022-12-18T01:58:24.591Z,68.71
2022-12-18T01:59:24.554Z,67.94
2022-12-18T02:00:24.593Z,67.65
2022-12-18T02:01:24.701Z,67.97
2022-12-18T02:02:24.633Z,67.55
2022-12-18T02:03:24.619Z,67.44
2022-12-18T02:04:24.508Z,67.02
2022-12-18T02:05:24.498Z,67.16
2022-12-18T02:06:24.538Z,68.00
2022-12-18T02:07:24.507Z,67.05
2022-12-18T02:08:24.464Z,67.36
2022-12-18T02:09:24.468Z,67.19
2022-12-18T02:10:24.453Z,67.19
2022-12-18T02:11:24.449Z,67.19
2022-12-18T02:12:24.428Z,67.93
2022-12-18T02:13:24.524Z,66.87
2022-12-18T02:14:24.426Z,67.61
2022-12-18T02:15:24.384Z,67.54
2022-12-18T02:16:24.453Z,67.29
2022-12-18T02:17:24.364Z,67.74
2022-12-18T02:18:24.415Z,67.00
2022-12-18T02:19:24.383Z,67.54
2022-12-18T02:20:24.330Z,67.96
2022-12-18T02:21:24.358Z,67.93
2022-12-18T02:22:24.337Z,67.85
2022-12-18T02:23:24.300Z,67.96
2022-12-18T02:24:24.305Z,67.43
2022-12-18T02:25:24.278Z,68.16
2022-12-18T02:26:24.272Z,67.85
2022-12-18T02:27:24.258Z,68.16
2022-12-18T02:28:24.265Z,67.61
2022-12-18T02:29:24.350Z,67.50
2022-12-18T02:30:24.283Z,67.82
2022-12-18T02:31:24.220Z,68.24
2022-12-18T02:32:24.203Z,68.45
2022-12-18T02:33:24.241Z,68.13
2022-12-18T02:34:24.191Z,68.42
2022-12-18T02:35:24.173Z,68.52
2022-12-18T02:36:24.176Z,68.21
2022-12-18T02:37:24.153Z,67.68
2022-12-18T02:38:24.141Z,67.97
2022-12-18T02:39:24.150Z,67.55
2022-12-18T02:40:24.148Z,67.33
2022-12-18T02:41:24.146Z,67.44
2022-12-18T02:42:24.151Z,67.13
2022-12-18T02:43:24.091Z,67.23
2022-12-18T02:44:24.079Z,66.28
2022-12-18T02:45:24.189Z,66.52
2022-12-18T02:46:24.086Z,66.00
2022-12-18T02:47:24.124Z,66.55
2022-12-18T02:48:24.039Z,66.55
2022-12-18T02:49:24.028Z,67.19
2022-12-18T02:50:24.073Z,67.19
2022-12-18T02:51:24.006Z,67.26
2022-12-18T02:52:24.008Z,66.94
2022-12-18T02:53:24.023Z,67.90
2022-12-18T02:54:23.972Z,67.58
2022-12-18T02:55:23.964Z,67.13
2022-12-18T02:56:23.969Z,67.76
2022-12-18T02:57:23.943Z,66.81
2022-12-18T02:58:23.971Z,67.02
2022-12-18T02:59:23.920Z,67.13
2022-12-18T03:00:23.908Z,66.63
2022-12-18T03:01:24.223Z,66.45
2022-12-18T03:02:24.096Z,66.77
2022-12-18T03:03:23.923Z,67.19
2022-12-18T03:04:23.980Z,67.40
2022-12-18T03:05:23.862Z,67.29
2022-12-18T03:06:23.871Z,67.50
2022-12-18T03:07:23.856Z,67.29
2022-12-18T03:08:23.826Z,67.29
2022-12-18T03:09:23.854Z,67.36
2022-12-18T03:10:23.855Z,67.26
2022-12-18T03:11:23.793Z,67.26
2022-12-18T03:12:23.787Z,66.45
2022-12-18T03:13:23.775Z,66.34
2022-12-18T03:14:23.790Z,66.87
2022-12-18T03:15:23.754Z,67.19
2022-12-18T03:16:23.840Z,67.11
2022-12-18T03:17:23.842Z,67.54
2022-12-18T03:18:23.722Z,67.54
2022-12-18T03:19:23.711Z,68.06
2022-12-18T03:20:23.701Z,68.48
2022-12-18T03:21:23.691Z,68.38
2022-12-18T03:22:23.724Z,67.88
2022-12-18T03:23:26.225Z,68.09
2022-12-18T03:24:23.716Z,68.59
2022-12-18T03:25:23.653Z,68.27
2022-12-18T03:26:23.641Z,67.96
2022-12-18T03:27:23.663Z,68.06
2022-12-18T03:28:23.689Z,68.38
2022-12-18T03:29:23.606Z,68.48
2022-12-18T03:30:23.622Z,68.27
2022-12-18T03:31:23.729Z,67.64
2022-12-18T03:32:23.574Z,67.96
2022-12-18T03:33:23.729Z,67.64
2022-12-18T03:34:23.602Z,67.32
2022-12-18T03:35:23.542Z,67.00
2022-12-18T03:36:23.532Z,67.22
2022-12-18T03:37:23.523Z,67.54
2022-12-18T03:38:23.543Z,67.00
2022-12-18T03:39:23.554Z,66.90
2022-12-18T03:40:23.523Z,67.85
2022-12-18T03:41:23.516Z,67.46
2022-12-18T03:42:23.470Z,67.25
2022-12-18T03:43:23.459Z,67.35
2022-12-18T03:44:23.448Z,68.41
2022-12-18T03:45:23.439Z,68.19
2022-12-18T03:46:23.540Z,68.70
2022-12-18T03:47:23.416Z,68.16
2022-12-18T03:48:23.405Z,68.35
2022-12-18T03:49:23.511Z,68.66
2022-12-18T03:50:23.387Z,68.24
2022-12-18T03:51:23.378Z,67.29
2022-12-18T03:52:23.426Z,66.87
2022-12-18T03:53:23.356Z,67.05
2022-12-18T03:54:23.342Z,66.74
2022-12-18T03:55:23.335Z,66.94
2022-12-18T03:56:23.321Z,67.26
2022-12-18T03:57:23.314Z,67.36
2022-12-18T03:58:23.343Z,67.16
2022-12-18T03:59:23.290Z,66.74
2022-12-18T04:00:23.282Z,66.63
2022-12-18T04:01:23.353Z,66.52
2022-12-18T04:02:23.397Z,67.26
2022-12-18T04:03:26.443Z,67.26
2022-12-18T04:04:23.287Z,67.16
2022-12-18T04:05:23.352Z,67.16
2022-12-18T04:06:23.217Z,67.36
2022-12-18T04:07:23.243Z,67.23
2022-12-18T04:08:23.194Z,67.23
2022-12-18T04:09:23.187Z,66.81
2022-12-18T04:10:23.242Z,66.60
2022-12-18T04:11:23.163Z,66.10
2022-12-18T04:12:23.153Z,66.07
2022-12-18T04:13:23.144Z,66.17
2022-12-18T04:14:23.134Z,66.49
2022-12-18T04:15:23.125Z,66.28
2022-12-18T04:16:23.154Z,66.39
2022-12-18T04:17:23.131Z,66.49
2022-12-18T04:18:23.094Z,66.49
2022-12-18T04:19:23.085Z,65.86
2022-12-18T04:20:23.075Z,64.81
2022-12-18T04:21:23.189Z,65.75
2022-12-18T04:22:23.098Z,66.17
2022-12-18T04:23:23.039Z,66.04
2022-12-18T04:24:23.054Z,66.04
2022-12-18T04:25:23.023Z,66.04
2022-12-18T04:26:23.005Z,66.14
2022-12-18T04:27:22.998Z,66.25
2022-12-18T04:28:23.023Z,66.04
2022-12-18T04:29:23.019Z,66.25
2022-12-18T04:30:22.967Z,65.94
2022-12-18T04:31:23.029Z,66.14
2022-12-18T04:32:22.942Z,66.49
2022-12-18T04:33:22.935Z,66.36
2022-12-18T04:34:22.989Z,66.49
2022-12-18T04:35:22.913Z,66.36
2022-12-18T04:36:22.902Z,66.71
2022-12-18T04:37:23.019Z,66.49
2022-12-18T04:38:22.883Z,66.28
2022-12-18T04:39:22.874Z,66.71
2022-12-18T04:40:22.894Z,66.49
2022-12-18T04:41:22.850Z,67.02
2022-12-18T04:42:22.844Z,67.13
2022-12-18T04:43:22.930Z,66.71
2022-12-18T04:44:22.817Z,66.42
2022-12-18T04:45:22.844Z,66.60
2022-12-18T04:46:22.901Z,66.63
2022-12-18T04:47:22.787Z,66.52
2022-12-18T04:48:22.801Z,66.39
2022-12-18T04:49:22.770Z,66.74
2022-12-18T04:50:22.754Z,67.13
2022-12-18T04:51:26.478Z,67.02
2022-12-18T04:52:23.470Z,66.91
2022-12-18T04:53:22.873Z,66.81
2022-12-18T04:54:22.739Z,66.52
2022-12-18T04:55:22.704Z,66.74
2022-12-18T04:56:22.730Z,67.16
2022-12-18T04:57:22.683Z,66.94
2022-12-18T04:58:22.694Z,67.47
2022-12-18T04:59:22.685Z,67.05
2022-12-18T05:00:22.692Z,67.16
2022-12-18T05:01:22.828Z,67.05
2022-12-18T05:02:22.797Z,67.79
2022-12-18T05:03:22.648Z,67.90
2022-12-18T05:04:22.630Z,68.42
2022-12-18T05:05:22.597Z,66.94
2022-12-18T05:06:22.604Z,67.90
2022-12-18T05:07:22.605Z,67.47
2022-12-18T05:08:22.564Z,67.26
2022-12-18T05:09:22.674Z,67.16
2022-12-18T05:10:22.569Z,66.84
2022-12-18T05:11:22.560Z,66.84
2022-12-18T05:12:22.523Z,67.16
2022-12-18T05:13:22.518Z,67.26
2022-12-18T05:14:22.535Z,67.40
2022-12-18T05:15:22.510Z,68.00
2022-12-18T05:16:22.546Z,67.05
2022-12-18T05:17:22.471Z,67.26
2022-12-18T05:18:22.458Z,67.36
2022-12-18T05:19:22.455Z,67.16
2022-12-18T05:20:22.467Z,67.16
2022-12-18T05:21:22.431Z,66.84
2022-12-18T05:22:22.456Z,67.05
2022-12-18T05:23:22.407Z,66.74
2022-12-18T05:24:22.397Z,66.31
2022-12-18T05:25:22.505Z,66.94
2022-12-18T05:26:22.379Z,67.36
2022-12-18T05:27:22.403Z,67.16
2022-12-18T05:28:22.385Z,66.84
2022-12-18T05:29:22.346Z,67.13
2022-12-18T05:30:22.332Z,67.23
2022-12-18T05:31:22.373Z,67.16
2022-12-18T05:32:22.311Z,67.16
2022-12-18T05:33:22.341Z,66.81
2022-12-18T05:34:22.346Z,66.91
2022-12-18T05:35:22.287Z,66.71
2022-12-18T05:36:22.270Z,66.31
2022-12-18T05:37:22.267Z,66.52
2022-12-18T05:38:22.249Z,66.60
2022-12-18T05:39:22.276Z,66.63
2022-12-18T05:40:22.257Z,66.63
2022-12-18T05:41:22.337Z,66.60
2022-12-18T05:42:22.209Z,66.42
2022-12-18T05:43:22.200Z,66.63
2022-12-18T05:44:22.185Z,66.52
2022-12-18T05:45:22.194Z,66.52
2022-12-18T05:46:22.225Z,66.42
2022-12-18T05:47:22.154Z,66.63
2022-12-18T05:48:22.144Z,66.84
2022-12-18T05:49:22.160Z,67.26
2022-12-18T05:50:22.123Z,67.08
2022-12-18T05:51:22.116Z,67.36
2022-12-18T05:52:22.132Z,68.10
2022-12-18T05:53:22.092Z,66.94
2022-12-18T05:54:22.080Z,66.94
2022-12-18T05:55:22.105Z,67.47
2022-12-18T05:56:22.070Z,67.19
2022-12-18T05:57:22.202Z,67.16
2022-12-18T05:58:22.070Z,67.36
2022-12-18T05:59:22.066Z,67.16
2022-12-18T06:00:22.035Z,67.16
2022-12-18T06:01:22.059Z,67.16
2022-12-18T06:02:22.259Z,67.36
2022-12-18T06:03:22.120Z,67.26
2022-12-18T06:04:21.986Z,67.05
2022-12-18T06:05:21.992Z,67.26
2022-12-18T06:06:21.952Z,67.16
2022-12-18T06:07:21.970Z,66.94
2022-12-18T06:08:21.933Z,67.16
2022-12-18T06:09:21.927Z,67.08
2022-12-18T06:10:21.919Z,67.16
2022-12-18T06:11:21.953Z,66.77
2022-12-18T06:12:21.890Z,66.66
2022-12-18T06:13:22.060Z,66.45
2022-12-18T06:14:21.871Z,66.55
2022-12-18T06:15:21.864Z,65.81
2022-12-18T06:16:21.895Z,66.13
2022-12-18T06:17:21.843Z,65.92
2022-12-18T06:18:21.827Z,66.45
2022-12-18T06:19:21.835Z,66.97
2022-12-18T06:20:21.806Z,66.77
2022-12-18T06:21:21.801Z,66.97
2022-12-18T06:22:21.809Z,66.55
2022-12-18T06:23:21.805Z,66.45
2022-12-18T06:24:21.763Z,65.92
2022-12-18T06:25:21.761Z,66.24
2022-12-18T06:26:27.575Z,66.77
2022-12-18T06:27:21.738Z,66.66
2022-12-18T06:28:21.764Z,66.58
2022-12-18T06:29:21.827Z,66.48
2022-12-18T06:30:21.708Z,66.55
2022-12-18T06:31:21.804Z,66.45
2022-12-18T06:32:21.716Z,67.19
2022-12-18T06:33:21.674Z,66.79
2022-12-18T06:34:21.674Z,66.87
2022-12-18T06:35:21.648Z,66.87
2022-12-18T06:36:21.636Z,67.19
2022-12-18T06:37:21.636Z,66.97
2022-12-18T06:38:21.651Z,66.97
2022-12-18T06:39:21.634Z,67.61
2022-12-18T06:40:21.613Z,66.97
2022-12-18T06:41:21.590Z,68.45
2022-12-18T06:42:21.575Z,67.16
2022-12-18T06:43:21.571Z,66.84
2022-12-18T06:44:21.576Z,67.16
2022-12-18T06:45:21.660Z,66.84
2022-12-18T06:46:21.591Z,66.45
2022-12-18T06:47:21.557Z,66.45
2022-12-18T06:48:21.535Z,65.92
2022-12-18T06:49:22.245Z,66.34
2022-12-18T06:50:21.491Z,66.24
2022-12-18T06:51:21.486Z,66.05
2022-12-18T06:52:21.483Z,65.00
2022-12-18T06:53:21.488Z,66.61
2022-12-18T06:54:21.501Z,66.75
2022-12-18T06:55:21.448Z,67.38
2022-12-18T06:56:21.428Z,67.38
2022-12-18T06:57:21.422Z,67.77
2022-12-18T06:58:21.425Z,67.80
2022-12-18T06:59:21.408Z,67.57
2022-12-18T07:00:21.408Z,68.16
2022-12-18T07:01:21.730Z,68.06
2022-12-18T07:02:21.504Z,68.06
2022-12-18T07:03:21.360Z,67.50
2022-12-18T07:04:21.369Z,66.87
2022-12-18T07:05:21.347Z,66.97
2022-12-18T07:06:21.329Z,67.29
2022-12-18T07:07:21.321Z,67.29
2022-12-18T07:08:21.344Z,67.16
2022-12-18T07:09:21.299Z,67.26
2022-12-18T07:10:21.295Z,67.16
2022-12-18T07:11:21.273Z,67.26
2022-12-18T07:12:21.273Z,67.26
2022-12-18T07:13:21.257Z,67.26
2022-12-18T07:14:21.266Z,67.13
2022-12-18T07:15:21.255Z,66.74
2022-12-18T07:16:25.267Z,66.74
2022-12-18T07:17:21.353Z,66.42
2022-12-18T07:18:21.209Z,67.05
2022-12-18T07:19:21.212Z,67.16
2022-12-18T07:20:21.176Z,66.74
2022-12-18T07:21:21.172Z,66.74
2022-12-18T07:22:21.178Z,66.31
2022-12-18T07:23:21.145Z,66.52
2022-12-18T07:24:21.147Z,66.31
2022-12-18T07:25:21.132Z,66.49
2022-12-18T07:26:21.112Z,66.91
2022-12-18T07:27:21.128Z,66.49
2022-12-18T07:28:21.104Z,66.28
2022-12-18T07:29:21.121Z,66.60
2022-12-18T07:30:21.080Z,66.39
2022-12-18T07:31:21.566Z,66.63
2022-12-18T07:32:21.051Z,66.63
2022-12-18T07:33:21.161Z,66.49
2022-12-18T07:34:21.052Z,66.49
2022-12-18T07:35:24.962Z,66.52
2022-12-18T07:36:21.015Z,66.42
2022-12-18T07:37:21.013Z,66.71
2022-12-18T07:38:21.033Z,66.52
2022-12-18T07:39:20.982Z,66.28
2022-12-18T07:40:21.097Z,66.10
2022-12-18T07:41:20.971Z,66.00
2022-12-18T07:42:20.956Z,66.00
2022-12-18T07:43:20.952Z,65.78
2022-12-18T07:44:20.949Z,66.20
2022-12-18T07:45:20.919Z,65.78
2022-12-18T07:46:20.980Z,66.20
2022-12-18T07:47:20.895Z,66.10
2022-12-18T07:48:20.889Z,66.42
2022-12-18T07:49:21.014Z,66.55
2022-12-18T07:50:20.883Z,66.42
2022-12-18T07:51:20.858Z,66.42
2022-12-18T07:52:25.731Z,66.66
2022-12-18T07:53:20.869Z,66.74
2022-12-18T07:54:20.837Z,66.84
2022-12-18T07:55:20.814Z,66.87
2022-12-18T07:56:29.639Z,66.74
2022-12-18T07:57:48.971Z,66.52
2022-12-18T07:58:20.793Z,66.74
2022-12-18T07:59:20.794Z,66.74
2022-12-18T08:00:20.771Z,66.74
2022-12-18T08:01:21.374Z,66.94
2022-12-18T08:02:20.962Z,66.94
2022-12-18T08:03:20.784Z,66.52
2022-12-18T08:04:20.739Z,66.74
2022-12-18T08:05:20.817Z,66.94
2022-12-18T08:06:21.289Z,67.26
2022-12-18T08:07:20.697Z,67.44
2022-12-18T08:08:20.699Z,67.36
2022-12-18T08:09:20.667Z,67.23
2022-12-18T08:10:20.659Z,67.47
2022-12-18T08:11:20.640Z,67.23
2022-12-18T08:12:20.637Z,67.02
2022-12-18T08:13:20.645Z,67.26
2022-12-18T08:14:20.608Z,67.26
2022-12-18T08:15:20.604Z,67.13
2022-12-18T08:16:20.779Z,67.02
2022-12-18T08:17:20.645Z,67.23
2022-12-18T08:18:20.613Z,67.26
2022-12-18T08:19:20.562Z,67.23
2022-12-18T08:20:20.549Z,66.84
2022-12-18T08:21:26.494Z,67.16
2022-12-18T08:22:21.642Z,67.29
2022-12-18T08:23:20.554Z,68.03
2022-12-18T08:24:20.513Z,67.71
2022-12-18T08:25:20.498Z,67.36
2022-12-18T08:26:20.991Z,67.47
2022-12-18T08:27:29.521Z,68.35
2022-12-18T08:28:21.505Z,66.97
2022-12-18T08:29:21.767Z,66.66
2022-12-18T08:30:20.446Z,67.16
2022-12-18T08:31:27.002Z,67.58
2022-12-18T08:32:20.483Z,67.68
2022-12-18T08:33:20.417Z,66.94
2022-12-18T08:34:20.429Z,67.05
2022-12-18T08:35:20.389Z,67.68
2022-12-18T08:36:20.391Z,67.47
2022-12-18T08:37:20.372Z,66.84
2022-12-18T08:38:20.470Z,67.02
2022-12-18T08:39:20.367Z,67.26
2022-12-18T08:40:20.347Z,67.26
2022-12-18T08:41:20.354Z,67.16
2022-12-18T08:42:20.325Z,67.79
2022-12-18T08:43:20.324Z,67.36
2022-12-18T08:44:20.293Z,67.36
2022-12-18T08:45:20.295Z,66.97
2022-12-18T08:46:20.380Z,67.40
2022-12-18T08:47:20.261Z,67.82
2022-12-18T08:48:22.273Z,67.50
2022-12-18T08:49:20.270Z,67.82
2022-12-18T08:50:20.234Z,68.16
2022-12-18T08:51:20.225Z,68.16
2022-12-18T08:52:20.225Z,67.96
2022-12-18T08:53:20.202Z,68.98
2022-12-18T08:54:20.326Z,68.45
2022-12-18T08:55:20.200Z,68.59
2022-12-18T08:56:20.169Z,68.70
2022-12-18T08:57:20.163Z,68.51
2022-12-18T08:58:20.156Z,69.25
2022-12-18T08:59:20.281Z,69.36
2022-12-18T09:00:20.185Z,69.81
2022-12-18T09:01:20.227Z,70.31
2022-12-18T09:02:20.327Z,70.73
2022-12-18T09:03:20.233Z,70.73
2022-12-18T09:04:20.097Z,70.49
2022-12-18T09:05:20.115Z,70.38
2022-12-18T09:06:20.079Z,69.93
2022-12-18T09:07:20.060Z,70.03
2022-12-18T09:08:20.045Z,69.51
2022-12-18T09:09:20.043Z,69.48
2022-12-18T09:10:20.138Z,69.02
2022-12-18T09:11:20.040Z,68.74
2022-12-18T09:12:20.049Z,68.81
2022-12-18T09:13:20.002Z,68.18
2022-12-18T09:14:19.982Z,68.26
2022-12-18T09:15:19.974Z,67.86
2022-12-18T09:16:19.993Z,67.97
2022-12-18T09:17:19.989Z,67.76
2022-12-18T09:18:19.949Z,68.32
2022-12-18T09:19:19.951Z,68.00
2022-12-18T09:20:19.951Z,68.63
2022-12-18T09:21:19.912Z,68.95
2022-12-18T09:22:19.909Z,68.95
2022-12-18T09:23:19.887Z,69.02
2022-12-18T09:24:19.923Z,68.78
2022-12-18T09:25:19.883Z,68.46
2022-12-18T09:26:19.975Z,68.49
2022-12-18T09:27:19.852Z,68.49
2022-12-18T09:28:19.841Z,68.42
2022-12-18T09:29:19.861Z,69.16
2022-12-18T09:30:19.820Z,69.51
2022-12-18T09:31:19.858Z,70.35
2022-12-18T09:32:22.448Z,70.42
2022-12-18T09:33:19.786Z,70.10
2022-12-18T09:34:19.797Z,70.18
2022-12-18T09:35:19.795Z,70.21
2022-12-18T09:36:19.754Z,70.21
2022-12-18T09:37:19.742Z,70.29
2022-12-18T09:38:19.766Z,70.29
2022-12-18T09:39:22.223Z,69.94
2022-12-18T09:40:19.734Z,70.12
2022-12-18T09:41:19.695Z,69.27
2022-12-18T09:42:19.822Z,68.96
2022-12-18T09:43:19.682Z,68.82
2022-12-18T09:44:19.736Z,68.30
2022-12-18T09:45:19.662Z,68.58
2022-12-18T09:46:19.693Z,68.27
2022-12-18T09:47:19.713Z,67.43
2022-12-18T09:48:19.625Z,67.85
2022-12-18T09:49:19.619Z,68.08
2022-12-18T09:50:19.600Z,67.46
2022-12-18T09:51:19.592Z,68.43
2022-12-18T09:52:19.665Z,67.98
2022-12-18T09:53:19.570Z,68.23
2022-12-18T09:54:19.557Z,68.75
2022-12-18T09:55:19.546Z,68.33
2022-12-18T09:56:19.536Z,68.30
2022-12-18T09:57:19.526Z,68.82
2022-12-18T09:58:19.666Z,68.19
2022-12-18T09:59:19.509Z,68.58
2022-12-18T10:00:19.528Z,68.69
2022-12-18T10:01:19.659Z,68.27
2022-12-18T10:02:19.575Z,68.16
2022-12-18T10:03:19.485Z,67.50
2022-12-18T10:04:19.551Z,67.63
2022-12-18T10:05:19.457Z,67.21
2022-12-18T10:06:19.436Z,68.30
2022-12-18T10:07:19.418Z,69.38
2022-12-18T10:08:19.441Z,69.70
2022-12-18T10:09:19.428Z,70.33
2022-12-18T10:10:19.435Z,70.54
2022-12-18T10:11:19.374Z,70.61
2022-12-18T10:12:19.364Z,70.51
2022-12-18T10:13:19.383Z,69.98
2022-12-18T10:14:19.463Z,70.09
2022-12-18T10:15:19.339Z,69.42
2022-12-18T10:16:19.437Z,69.64
2022-12-18T10:17:19.309Z,69.60
2022-12-18T10:18:22.132Z,68.55
2022-12-18T10:19:19.290Z,69.36
2022-12-18T10:20:19.313Z,69.15
2022-12-18T10:21:19.273Z,68.07
2022-12-18T10:22:19.289Z,68.38
2022-12-18T10:23:19.245Z,67.96
2022-12-18T10:24:19.275Z,67.44
2022-12-18T10:25:19.223Z,68.28
2022-12-18T10:26:19.214Z,67.65
2022-12-18T10:27:19.242Z,68.14
2022-12-18T10:28:19.215Z,67.86
2022-12-18T10:29:19.182Z,68.38
2022-12-18T10:30:19.390Z,67.61
2022-12-18T10:31:19.266Z,68.04
2022-12-18T10:32:19.150Z,67.86
2022-12-18T10:33:19.157Z,67.44
2022-12-18T10:34:19.175Z,67.23
2022-12-18T10:35:19.151Z,67.86
2022-12-18T10:36:19.109Z,67.26
2022-12-18T10:37:19.097Z,67.79
2022-12-18T10:38:19.088Z,67.92
2022-12-18T10:39:19.092Z,67.99
2022-12-18T10:40:22.657Z,67.79
2022-12-18T10:41:19.053Z,68.10
2022-12-18T10:42:19.049Z,68.41
2022-12-18T10:43:19.033Z,67.54
2022-12-18T10:44:19.030Z,68.38
2022-12-18T10:45:19.037Z,67.72
2022-12-18T10:46:19.199Z,67.61
2022-12-18T10:47:18.996Z,66.60
2022-12-18T10:48:18.986Z,67.76
2022-12-18T10:49:18.968Z,66.88
2022-12-18T10:50:19.046Z,67.02
2022-12-18T10:51:18.969Z,67.89
2022-12-18T10:52:18.979Z,67.65
2022-12-18T10:53:18.929Z,67.54
2022-12-18T10:54:18.935Z,67.12
2022-12-18T10:55:18.904Z,67.09
2022-12-18T10:56:18.898Z,66.99
2022-12-18T10:57:18.892Z,67.02
2022-12-18T10:58:22.211Z,66.67
2022-12-18T10:59:19.882Z,66.81
2022-12-18T11:00:18.866Z,67.12
2022-12-18T11:01:18.924Z,67.41
2022-12-18T11:02:19.063Z,66.85
2022-12-18T11:03:18.914Z,66.96
2022-12-18T11:04:18.816Z,67.03
2022-12-18T11:05:18.798Z,67.35
2022-12-18T11:06:18.796Z,66.93
2022-12-18T11:07:18.811Z,66.30
2022-12-18T11:08:18.777Z,66.40
2022-12-18T11:09:18.773Z,65.98
2022-12-18T11:10:18.748Z,65.98
2022-12-18T11:11:18.734Z,65.77
2022-12-18T11:12:18.737Z,66.43
2022-12-18T11:13:18.745Z,66.22
2022-12-18T11:14:18.717Z,66.43
2022-12-18T11:15:18.719Z,66.22
2022-12-18T11:16:18.734Z,66.61
2022-12-18T11:17:26.868Z,66.19
2022-12-18T11:18:19.779Z,65.91
2022-12-18T11:19:18.651Z,66.43
2022-12-18T11:20:18.693Z,66.53
2022-12-18T11:21:18.647Z,66.33
2022-12-18T11:22:18.617Z,66.43
2022-12-18T11:23:18.662Z,66.56
2022-12-18T11:24:18.606Z,66.53
2022-12-18T11:25:35.664Z,66.33
2022-12-18T11:26:19.617Z,66.64
2022-12-18T11:27:18.565Z,66.40
2022-12-18T11:28:18.584Z,66.09
2022-12-18T11:29:18.547Z,66.19
2022-12-18T11:30:18.558Z,65.67
2022-12-18T11:31:18.633Z,65.04
2022-12-18T11:32:18.539Z,64.94
2022-12-18T11:33:18.499Z,64.83
2022-12-18T11:34:33.983Z,64.83
2022-12-18T11:35:19.479Z,64.83
2022-12-18T11:36:18.479Z,65.59
2022-12-18T11:37:18.552Z,65.70
2022-12-18T11:38:18.457Z,66.64
2022-12-18T11:39:18.567Z,66.19
2022-12-18T11:40:18.430Z,66.19
2022-12-18T11:41:18.414Z,66.40
2022-12-18T11:42:18.406Z,66.40
2022-12-18T11:43:18.431Z,65.84
2022-12-18T11:44:18.403Z,65.22
2022-12-18T11:45:18.402Z,64.80
2022-12-18T11:46:20.118Z,64.69
2022-12-18T11:47:18.350Z,64.48
2022-12-18T11:48:18.343Z,64.67
2022-12-18T11:49:18.330Z,64.59
2022-12-18T11:50:18.489Z,64.80
2022-12-18T11:51:18.310Z,64.80
2022-12-18T11:52:18.299Z,64.69
2022-12-18T11:53:18.320Z,64.87
2022-12-18T11:54:18.276Z,64.67
2022-12-18T11:55:18.266Z,64.74
2022-12-18T11:56:18.264Z,64.04
2022-12-18T11:57:18.354Z,64.67
2022-12-18T11:58:18.282Z,64.38
2022-12-18T11:59:18.226Z,64.59
2022-12-18T12:00:18.242Z,64.69
2022-12-18T12:01:18.322Z,64.69
2022-12-18T12:02:18.329Z,64.45
2022-12-18T12:03:18.262Z,64.45
2022-12-18T12:04:18.181Z,64.48
2022-12-18T12:05:18.157Z,64.45
2022-12-18T12:06:18.294Z,64.48
2022-12-18T12:07:18.171Z,64.90
2022-12-18T12:08:18.135Z,64.90
2022-12-18T12:09:18.117Z,64.69
2022-12-18T12:10:18.105Z,64.67
2022-12-18T12:11:18.096Z,64.45
2022-12-18T12:12:18.111Z,64.77
2022-12-18T12:13:18.112Z,64.35
2022-12-18T12:14:18.071Z,64.67
2022-12-18T12:15:18.060Z,64.14
2022-12-18T12:16:18.149Z,64.56
2022-12-18T12:17:18.057Z,64.87
2022-12-18T12:18:18.049Z,64.35
2022-12-18T12:19:18.013Z,64.35
2022-12-18T12:20:18.040Z,64.87
2022-12-18T12:21:17.989Z,64.53
2022-12-18T12:22:18.094Z,63.90
2022-12-18T12:23:18.007Z,63.90
2022-12-18T12:24:17.958Z,64.11
2022-12-18T12:25:18.806Z,64.53
2022-12-18T12:26:17.948Z,64.11
2022-12-18T12:27:17.963Z,64.50
2022-12-18T12:28:17.913Z,63.67
2022-12-18T12:29:21.104Z,64.01
2022-12-18T12:30:17.891Z,64.53
2022-12-18T12:31:18.016Z,63.69
2022-12-18T12:32:17.928Z,63.79
2022-12-18T12:33:17.860Z,64.14
2022-12-18T12:34:17.875Z,64.35
2022-12-18T12:35:17.872Z,64.04
2022-12-18T12:36:17.829Z,64.28
2022-12-18T12:37:17.875Z,64.48
2022-12-18T12:38:17.946Z,64.90
2022-12-18T12:39:17.836Z,64.90
2022-12-18T12:40:49.208Z,64.77
2022-12-18T12:41:17.796Z,64.80
2022-12-18T12:42:17.795Z,64.90
2022-12-18T12:43:17.824Z,65.04
2022-12-18T12:44:17.756Z,65.77
2022-12-18T12:45:17.764Z,66.22
2022-12-18T12:46:17.780Z,66.30
2022-12-18T12:47:17.721Z,65.98
2022-12-18T12:48:17.734Z,66.09
2022-12-18T12:49:17.752Z,66.09
2022-12-18T12:50:17.693Z,66.09
2022-12-18T12:51:17.697Z,65.77
2022-12-18T12:52:17.658Z,66.30